sensor_id;sensor_type;location;lat;lon;timestamp;temperature;humidity
65291;SHT30;51893;59.754;10.110;2022-11-24T00:02:00;3.24;83.69
65291;SHT30;51893;59.754;10.110;2022-11-24T00:04:29;3.24;83.73
65291;SHT30;51893;59.754;10.110;2022-11-24T00:07:00;3.24;83.55
65291;SHT30;51893;59.754;10.110;2022-11-24T00:09:28;3.25;83.59
65291;SHT30;51893;59.754;10.110;2022-11-24T00:11:56;3.25;83.61
65291;SHT30;51893;59.754;10.110;2022-11-24T00:14:24;3.27;83.45
65291;SHT30;51893;59.754;10.110;2022-11-24T00:16:53;3.28;83.37
65291;SHT30;51893;59.754;10.110;2022-11-24T00:19:21;3.28;83.38
65291;SHT30;51893;59.754;10.110;2022-11-24T00:21:50;3.27;83.33
65291;SHT30;51893;59.754;10.110;2022-11-24T00:24:21;3.24;83.39
65291;SHT30;51893;59.754;10.110;2022-11-24T00:26:50;3.25;83.46
65291;SHT30;51893;59.754;10.110;2022-11-24T00:29:18;3.27;83.44
65291;SHT30;51893;59.754;10.110;2022-11-24T00:31:47;3.29;83.48
65291;SHT30;51893;59.754;10.110;2022-11-24T00:34:15;3.28;83.48
65291;SHT30;51893;59.754;10.110;2022-11-24T00:36:43;3.25;83.61
65291;SHT30;51893;59.754;10.110;2022-11-24T00:39:12;3.25;83.64
65291;SHT30;51893;59.754;10.110;2022-11-24T00:41:43;3.27;83.66
65291;SHT30;51893;59.754;10.110;2022-11-24T00:44:13;3.25;83.71
65291;SHT30;51893;59.754;10.110;2022-11-24T00:46:42;3.27;83.70
65291;SHT30;51893;59.754;10.110;2022-11-24T00:49:11;3.25;83.78
65291;SHT30;51893;59.754;10.110;2022-11-24T00:51:39;3.27;83.75
65291;SHT30;51893;59.754;10.110;2022-11-24T00:54:07;3.25;83.77
65291;SHT30;51893;59.754;10.110;2022-11-24T00:56:38;3.28;83.69
65291;SHT30;51893;59.754;10.110;2022-11-24T00:59:08;3.30;83.76
65291;SHT30;51893;59.754;10.110;2022-11-24T01:01:37;3.28;83.74
65291;SHT30;51893;59.754;10.110;2022-11-24T01:04:05;3.29;83.70
65291;SHT30;51893;59.754;10.110;2022-11-24T01:06:37;3.30;83.86
65291;SHT30;51893;59.754;10.110;2022-11-24T01:09:05;3.30;83.84
65291;SHT30;51893;59.754;10.110;2022-11-24T01:11:35;3.32;83.85
65291;SHT30;51893;59.754;10.110;2022-11-24T01:14:23;3.34;83.90
65291;SHT30;51893;59.754;10.110;2022-11-24T01:16:52;3.35;83.80
65291;SHT30;51893;59.754;10.110;2022-11-24T01:19:22;3.33;83.69
65291;SHT30;51893;59.754;10.110;2022-11-24T01:21:51;3.33;83.70
65291;SHT30;51893;59.754;10.110;2022-11-24T01:24:21;3.33;83.77
65291;SHT30;51893;59.754;10.110;2022-11-24T01:26:49;3.32;83.87
65291;SHT30;51893;59.754;10.110;2022-11-24T01:29:23;3.33;83.76
65291;SHT30;51893;59.754;10.110;2022-11-24T01:31:55;3.32;83.75
65291;SHT30;51893;59.754;10.110;2022-11-24T01:34:24;3.30;83.84
65291;SHT30;51893;59.754;10.110;2022-11-24T01:36:52;3.32;83.76
65291;SHT30;51893;59.754;10.110;2022-11-24T01:39:21;3.34;83.76
65291;SHT30;51893;59.754;10.110;2022-11-24T01:41:50;3.34;83.79
65291;SHT30;51893;59.754;10.110;2022-11-24T01:44:21;3.35;83.76
65291;SHT30;51893;59.754;10.110;2022-11-24T01:47:49;3.33;83.76
65291;SHT30;51893;59.754;10.110;2022-11-24T01:50:09;3.31;83.93
65291;SHT30;51893;59.754;10.110;2022-11-24T01:52:45;3.31;84.05
65291;SHT30;51893;59.754;10.110;2022-11-24T01:55:32;3.31;83.94
65291;SHT30;51893;59.754;10.110;2022-11-24T01:58:05;3.31;83.81
65291;SHT30;51893;59.754;10.110;2022-11-24T02:00:52;3.30;83.91
65291;SHT30;51893;59.754;10.110;2022-11-24T02:03:26;3.29;83.90
65291;SHT30;51893;59.754;10.110;2022-11-24T02:06:08;3.31;83.99
65291;SHT30;51893;59.754;10.110;2022-11-24T02:11:27;3.29;84.03
65291;SHT30;51893;59.754;10.110;2022-11-24T02:14:03;3.27;83.97
65291;SHT30;51893;59.754;10.110;2022-11-24T02:16:39;3.27;84.08
65291;SHT30;51893;59.754;10.110;2022-11-24T02:19:25;3.28;84.09
65291;SHT30;51893;59.754;10.110;2022-11-24T02:22:10;3.28;84.08
65291;SHT30;51893;59.754;10.110;2022-11-24T02:28:07;3.25;84.20
65291;SHT30;51893;59.754;10.110;2022-11-24T02:30:51;3.22;84.30
65291;SHT30;51893;59.754;10.110;2022-11-24T02:33:20;3.23;84.32
65291;SHT30;51893;59.754;10.110;2022-11-24T02:35:52;3.22;84.38
65291;SHT30;51893;59.754;10.110;2022-11-24T02:38:30;3.21;84.48
65291;SHT30;51893;59.754;10.110;2022-11-24T02:41:03;3.19;84.52
65291;SHT30;51893;59.754;10.110;2022-11-24T02:43:38;3.19;84.51
65291;SHT30;51893;59.754;10.110;2022-11-24T02:46:14;3.23;84.58
65291;SHT30;51893;59.754;10.110;2022-11-24T02:48:43;3.23;84.57
65291;SHT30;51893;59.754;10.110;2022-11-24T02:51:19;3.24;84.62
65291;SHT30;51893;59.754;10.110;2022-11-24T02:53:48;3.24;84.68
65291;SHT30;51893;59.754;10.110;2022-11-24T02:56:16;3.23;84.73
65291;SHT30;51893;59.754;10.110;2022-11-24T02:58:45;3.22;84.82
65291;SHT30;51893;59.754;10.110;2022-11-24T03:01:16;3.23;84.82
65291;SHT30;51893;59.754;10.110;2022-11-24T03:03:47;3.21;84.92
65291;SHT30;51893;59.754;10.110;2022-11-24T03:06:15;3.17;85.04
65291;SHT30;51893;59.754;10.110;2022-11-24T03:08:46;3.16;85.16
65291;SHT30;51893;59.754;10.110;2022-11-24T03:11:15;3.17;85.20
65291;SHT30;51893;59.754;10.110;2022-11-24T03:13:44;3.17;85.17
65291;SHT30;51893;59.754;10.110;2022-11-24T03:16:14;3.16;85.21
65291;SHT30;51893;59.754;10.110;2022-11-24T03:18:42;3.14;85.27
65291;SHT30;51893;59.754;10.110;2022-11-24T03:21:12;3.14;85.44
65291;SHT30;51893;59.754;10.110;2022-11-24T03:23:41;3.13;85.58
65291;SHT30;51893;59.754;10.110;2022-11-24T03:26:13;3.14;85.60
65291;SHT30;51893;59.754;10.110;2022-11-24T03:28:45;3.15;85.70
65291;SHT30;51893;59.754;10.110;2022-11-24T03:31:14;3.16;85.75
65291;SHT30;51893;59.754;10.110;2022-11-24T03:33:44;3.16;85.85
65291;SHT30;51893;59.754;10.110;2022-11-24T03:36:12;3.15;85.90
65291;SHT30;51893;59.754;10.110;2022-11-24T03:38:40;3.13;85.92
65291;SHT30;51893;59.754;10.110;2022-11-24T03:41:12;3.14;86.01
65291;SHT30;51893;59.754;10.110;2022-11-24T03:43:40;3.12;86.08
65291;SHT30;51893;59.754;10.110;2022-11-24T03:46:11;3.11;86.17
65291;SHT30;51893;59.754;10.110;2022-11-24T03:48:47;3.13;86.23
65291;SHT30;51893;59.754;10.110;2022-11-24T03:51:16;3.13;86.19
65291;SHT30;51893;59.754;10.110;2022-11-24T03:53:44;3.11;86.20
65291;SHT30;51893;59.754;10.110;2022-11-24T03:56:13;3.09;86.34
65291;SHT30;51893;59.754;10.110;2022-11-24T03:58:43;3.07;86.40
65291;SHT30;51893;59.754;10.110;2022-11-24T04:01:11;3.08;86.46
65291;SHT30;51893;59.754;10.110;2022-11-24T04:03:39;3.09;86.42
65291;SHT30;51893;59.754;10.110;2022-11-24T04:06:08;3.09;86.40
65291;SHT30;51893;59.754;10.110;2022-11-24T04:08:36;3.09;86.40
65291;SHT30;51893;59.754;10.110;2022-11-24T04:11:07;3.10;86.43
65291;SHT30;51893;59.754;10.110;2022-11-24T04:13:56;3.12;86.41
65291;SHT30;51893;59.754;10.110;2022-11-24T04:16:25;3.13;86.46
65291;SHT30;51893;59.754;10.110;2022-11-24T04:18:53;3.14;86.54
65291;SHT30;51893;59.754;10.110;2022-11-24T04:21:21;3.15;86.60
65291;SHT30;51893;59.754;10.110;2022-11-24T04:23:50;3.16;86.54
65291;SHT30;51893;59.754;10.110;2022-11-24T04:26:19;3.14;86.49
65291;SHT30;51893;59.754;10.110;2022-11-24T04:28:49;3.16;86.50
65291;SHT30;51893;59.754;10.110;2022-11-24T04:31:17;3.16;86.47
65291;SHT30;51893;59.754;10.110;2022-11-24T04:33:45;3.17;86.44
65291;SHT30;51893;59.754;10.110;2022-11-24T04:36:14;3.17;86.40
65291;SHT30;51893;59.754;10.110;2022-11-24T04:38:42;3.16;86.43
65291;SHT30;51893;59.754;10.110;2022-11-24T04:41:31;3.18;86.45
65291;SHT30;51893;59.754;10.110;2022-11-24T04:44:00;3.21;86.40
65291;SHT30;51893;59.754;10.110;2022-11-24T04:46:30;3.21;86.40
65291;SHT30;51893;59.754;10.110;2022-11-24T04:48:59;3.21;86.41
65291;SHT30;51893;59.754;10.110;2022-11-24T04:51:27;3.20;86.34
65291;SHT30;51893;59.754;10.110;2022-11-24T04:53:55;3.19;86.40
65291;SHT30;51893;59.754;10.110;2022-11-24T04:56:24;3.20;86.43
65291;SHT30;51893;59.754;10.110;2022-11-24T04:58:52;3.21;86.42
65291;SHT30;51893;59.754;10.110;2022-11-24T05:01:20;3.21;86.36
65291;SHT30;51893;59.754;10.110;2022-11-24T05:03:52;3.21;86.39
65291;SHT30;51893;59.754;10.110;2022-11-24T05:06:23;3.19;86.39
65291;SHT30;51893;59.754;10.110;2022-11-24T05:08:53;3.20;86.30
65291;SHT30;51893;59.754;10.110;2022-11-24T05:11:21;3.20;86.31
65291;SHT30;51893;59.754;10.110;2022-11-24T05:13:48;3.22;86.32
65291;SHT30;51893;59.754;10.110;2022-11-24T05:16:21;3.22;86.39
65291;SHT30;51893;59.754;10.110;2022-11-24T05:18:49;3.22;86.40
65291;SHT30;51893;59.754;10.110;2022-11-24T05:21:18;3.22;86.46
65291;SHT30;51893;59.754;10.110;2022-11-24T05:23:46;3.19;86.50
65291;SHT30;51893;59.754;10.110;2022-11-24T05:26:14;3.16;86.60
65291;SHT30;51893;59.754;10.110;2022-11-24T05:28:42;3.17;86.70
65291;SHT30;51893;59.754;10.110;2022-11-24T05:31:10;3.19;86.70
65291;SHT30;51893;59.754;10.110;2022-11-24T05:33:39;3.20;86.70
65291;SHT30;51893;59.754;10.110;2022-11-24T05:36:08;3.20;86.66
65291;SHT30;51893;59.754;10.110;2022-11-24T05:39:00;3.16;86.68
65291;SHT30;51893;59.754;10.110;2022-11-24T05:41:33;3.15;86.71
65291;SHT30;51893;59.754;10.110;2022-11-24T05:44:02;3.14;86.76
65291;SHT30;51893;59.754;10.110;2022-11-24T05:46:30;3.15;86.73
65291;SHT30;51893;59.754;10.110;2022-11-24T05:48:59;3.14;86.70
65291;SHT30;51893;59.754;10.110;2022-11-24T05:51:30;3.15;86.68
65291;SHT30;51893;59.754;10.110;2022-11-24T05:54:00;3.14;86.72
65291;SHT30;51893;59.754;10.110;2022-11-24T05:56:31;3.15;86.71
65291;SHT30;51893;59.754;10.110;2022-11-24T05:58:59;3.14;86.68
65291;SHT30;51893;59.754;10.110;2022-11-24T06:01:34;3.17;86.64
65291;SHT30;51893;59.754;10.110;2022-11-24T06:04:05;3.21;86.60
65291;SHT30;51893;59.754;10.110;2022-11-24T06:06:37;3.22;86.52
65291;SHT30;51893;59.754;10.110;2022-11-24T06:09:06;3.24;86.49
65291;SHT30;51893;59.754;10.110;2022-11-24T06:11:34;3.25;86.47
65291;SHT30;51893;59.754;10.110;2022-11-24T06:14:02;3.24;86.48
65291;SHT30;51893;59.754;10.110;2022-11-24T06:16:39;3.24;86.41
65291;SHT30;51893;59.754;10.110;2022-11-24T06:19:09;3.25;86.40
65291;SHT30;51893;59.754;10.110;2022-11-24T06:21:38;3.24;86.40
65291;SHT30;51893;59.754;10.110;2022-11-24T06:24:08;3.24;86.40
65291;SHT30;51893;59.754;10.110;2022-11-24T06:26:36;3.25;86.47
65291;SHT30;51893;59.754;10.110;2022-11-24T06:29:04;3.26;86.54
65291;SHT30;51893;59.754;10.110;2022-11-24T06:31:34;3.24;86.50
65291;SHT30;51893;59.754;10.110;2022-11-24T06:34:06;3.22;86.32
65291;SHT30;51893;59.754;10.110;2022-11-24T06:36:39;3.24;86.30
65291;SHT30;51893;59.754;10.110;2022-11-24T06:39:10;3.24;86.40
65291;SHT30;51893;59.754;10.110;2022-11-24T06:41:40;3.25;86.38
65291;SHT30;51893;59.754;10.110;2022-11-24T06:44:08;3.25;86.37
65291;SHT30;51893;59.754;10.110;2022-11-24T06:46:36;3.25;86.39
65291;SHT30;51893;59.754;10.110;2022-11-24T06:49:05;3.25;86.35
65291;SHT30;51893;59.754;10.110;2022-11-24T06:51:33;3.22;86.34
65291;SHT30;51893;59.754;10.110;2022-11-24T06:54:06;3.21;86.40
65291;SHT30;51893;59.754;10.110;2022-11-24T06:56:42;3.22;86.39
65291;SHT30;51893;59.754;10.110;2022-11-24T06:59:16;3.21;86.46
65291;SHT30;51893;59.754;10.110;2022-11-24T07:01:49;3.21;86.51
65291;SHT30;51893;59.754;10.110;2022-11-24T07:04:19;3.21;86.59
65291;SHT30;51893;59.754;10.110;2022-11-24T07:06:49;3.23;86.69
65291;SHT30;51893;59.754;10.110;2022-11-24T07:09:21;3.24;86.64
65291;SHT30;51893;59.754;10.110;2022-11-24T07:11:50;3.26;86.57
65291;SHT30;51893;59.754;10.110;2022-11-24T07:14:28;3.28;86.50
65291;SHT30;51893;59.754;10.110;2022-11-24T07:16:56;3.28;86.50
65291;SHT30;51893;59.754;10.110;2022-11-24T07:19:26;3.25;86.55
65291;SHT30;51893;59.754;10.110;2022-11-24T07:21:55;3.22;86.55
65291;SHT30;51893;59.754;10.110;2022-11-24T07:24:23;3.23;86.50
65291;SHT30;51893;59.754;10.110;2022-11-24T07:26:52;3.26;86.50
65291;SHT30;51893;59.754;10.110;2022-11-24T07:29:21;3.26;86.45
65291;SHT30;51893;59.754;10.110;2022-11-24T07:31:50;3.26;86.53
65291;SHT30;51893;59.754;10.110;2022-11-24T07:34:28;3.24;86.64
65291;SHT30;51893;59.754;10.110;2022-11-24T07:36:56;3.22;86.75
65291;SHT30;51893;59.754;10.110;2022-11-24T07:39:25;3.20;86.82
65291;SHT30;51893;59.754;10.110;2022-11-24T07:41:57;3.18;86.88
65291;SHT30;51893;59.754;10.110;2022-11-24T07:44:28;3.16;87.00
65291;SHT30;51893;59.754;10.110;2022-11-24T07:46:59;3.18;87.06
65291;SHT30;51893;59.754;10.110;2022-11-24T07:49:29;3.14;87.12
65291;SHT30;51893;59.754;10.110;2022-11-24T07:51:57;3.06;87.16
65291;SHT30;51893;59.754;10.110;2022-11-24T07:54:25;2.97;87.19
65291;SHT30;51893;59.754;10.110;2022-11-24T07:56:56;2.90;87.32
65291;SHT30;51893;59.754;10.110;2022-11-24T07:59:25;2.82;87.45
65291;SHT30;51893;59.754;10.110;2022-11-24T08:01:54;2.78;87.63
65291;SHT30;51893;59.754;10.110;2022-11-24T08:04:22;2.72;87.78
65291;SHT30;51893;59.754;10.110;2022-11-24T08:06:50;2.68;87.82
65291;SHT30;51893;59.754;10.110;2022-11-24T08:09:19;2.65;87.97
65291;SHT30;51893;59.754;10.110;2022-11-24T08:11:48;2.63;88.07
65291;SHT30;51893;59.754;10.110;2022-11-24T08:14:16;2.60;88.22
65291;SHT30;51893;59.754;10.110;2022-11-24T08:16:45;2.56;88.32
65291;SHT30;51893;59.754;10.110;2022-11-24T08:19:16;2.54;88.48
65291;SHT30;51893;59.754;10.110;2022-11-24T08:21:47;2.52;88.52
65291;SHT30;51893;59.754;10.110;2022-11-24T08:24:15;2.50;88.59
65291;SHT30;51893;59.754;10.110;2022-11-24T08:26:43;2.51;88.69
65291;SHT30;51893;59.754;10.110;2022-11-24T08:29:12;2.51;88.71
65291;SHT30;51893;59.754;10.110;2022-11-24T08:31:42;2.48;88.77
65291;SHT30;51893;59.754;10.110;2022-11-24T08:34:10;2.46;88.80
65291;SHT30;51893;59.754;10.110;2022-11-24T08:36:38;2.44;88.83
65291;SHT30;51893;59.754;10.110;2022-11-24T08:39:07;2.44;88.87
65291;SHT30;51893;59.754;10.110;2022-11-24T08:41:38;2.44;88.93
65291;SHT30;51893;59.754;10.110;2022-11-24T08:44:07;2.45;89.03
65291;SHT30;51893;59.754;10.110;2022-11-24T08:46:37;2.46;89.04
65291;SHT30;51893;59.754;10.110;2022-11-24T08:49:05;2.47;89.08
65291;SHT30;51893;59.754;10.110;2022-11-24T08:51:36;2.47;89.18
65291;SHT30;51893;59.754;10.110;2022-11-24T08:54:04;2.46;89.14
65291;SHT30;51893;59.754;10.110;2022-11-24T08:56:32;2.46;89.20
65291;SHT30;51893;59.754;10.110;2022-11-24T08:59:01;2.48;89.21
65291;SHT30;51893;59.754;10.110;2022-11-24T09:01:30;2.48;89.20
65291;SHT30;51893;59.754;10.110;2022-11-24T09:03:58;2.48;89.23
65291;SHT30;51893;59.754;10.110;2022-11-24T09:06:27;2.51;89.26
65291;SHT30;51893;59.754;10.110;2022-11-24T09:08:58;2.55;89.30
65291;SHT30;51893;59.754;10.110;2022-11-24T09:11:27;2.60;89.31
65291;SHT30;51893;59.754;10.110;2022-11-24T09:13:58;2.64;89.30
65291;SHT30;51893;59.754;10.110;2022-11-24T09:16:27;2.66;89.27
65291;SHT30;51893;59.754;10.110;2022-11-24T09:18:57;2.68;89.24
65291;SHT30;51893;59.754;10.110;2022-11-24T09:21:30;2.73;89.28
65291;SHT30;51893;59.754;10.110;2022-11-24T09:24:01;2.76;89.22
65291;SHT30;51893;59.754;10.110;2022-11-24T09:26:33;2.80;89.21
65291;SHT30;51893;59.754;10.110;2022-11-24T09:29:04;2.85;89.20
65291;SHT30;51893;59.754;10.110;2022-11-24T09:31:36;2.89;89.13
65291;SHT30;51893;59.754;10.110;2022-11-24T09:34:07;2.91;89.02
65291;SHT30;51893;59.754;10.110;2022-11-24T09:36:41;2.91;88.97
65291;SHT30;51893;59.754;10.110;2022-11-24T09:39:11;2.93;88.97
65291;SHT30;51893;59.754;10.110;2022-11-24T09:44:56;2.98;88.94
65291;SHT30;51893;59.754;10.110;2022-11-24T09:56:21;2.95;89.00
65291;SHT30;51893;59.754;10.110;2022-11-24T09:59:01;2.95;88.99
65291;SHT30;51893;59.754;10.110;2022-11-24T10:01:41;2.92;88.91
65291;SHT30;51893;59.754;10.110;2022-11-24T10:04:15;2.87;88.97
65291;SHT30;51893;59.754;10.110;2022-11-24T10:07:21;2.84;89.04
65291;SHT30;51893;59.754;10.110;2022-11-24T10:24:51;2.83;89.30
65291;SHT30;51893;59.754;10.110;2022-11-24T10:27:48;2.83;89.34
65291;SHT30;51893;59.754;10.110;2022-11-24T10:30:26;2.82;89.38
65291;SHT30;51893;59.754;10.110;2022-11-24T10:33:02;2.84;89.39
65291;SHT30;51893;59.754;10.110;2022-11-24T10:36:00;2.84;89.30
65291;SHT30;51893;59.754;10.110;2022-11-24T10:38:41;2.88;89.35
65291;SHT30;51893;59.754;10.110;2022-11-24T10:41:37;2.90;89.34
65291;SHT30;51893;59.754;10.110;2022-11-24T10:44:24;2.92;89.30
65291;SHT30;51893;59.754;10.110;2022-11-24T10:46:53;2.96;89.34
65291;SHT30;51893;59.754;10.110;2022-11-24T10:49:26;2.99;89.31
65291;SHT30;51893;59.754;10.110;2022-11-24T10:52:20;2.97;89.20
65291;SHT30;51893;59.754;10.110;2022-11-24T10:55:00;2.95;89.10
65291;SHT30;51893;59.754;10.110;2022-11-24T10:57:32;2.96;89.10
65291;SHT30;51893;59.754;10.110;2022-11-24T11:02:45;2.97;89.12
65291;SHT30;51893;59.754;10.110;2022-11-24T11:05:24;2.99;89.12
65291;SHT30;51893;59.754;10.110;2022-11-24T11:08:09;2.98;89.05
65291;SHT30;51893;59.754;10.110;2022-11-24T11:14:09;3.08;89.08
65291;SHT30;51893;59.754;10.110;2022-11-24T11:16:40;3.11;89.02
65291;SHT30;51893;59.754;10.110;2022-11-24T11:19:34;3.13;88.97
65291;SHT30;51893;59.754;10.110;2022-11-24T11:22:26;3.13;88.86
65291;SHT30;51893;59.754;10.110;2022-11-24T11:25:02;3.13;88.82
65291;SHT30;51893;59.754;10.110;2022-11-24T11:27:40;3.15;88.81
65291;SHT30;51893;59.754;10.110;2022-11-24T11:30:16;3.17;88.89
65291;SHT30;51893;59.754;10.110;2022-11-24T11:33:21;3.25;88.90
65291;SHT30;51893;59.754;10.110;2022-11-24T11:36:13;3.31;88.82
65291;SHT30;51893;59.754;10.110;2022-11-24T11:38:44;3.35;88.78
65291;SHT30;51893;59.754;10.110;2022-11-24T11:41:23;3.33;88.70
65291;SHT30;51893;59.754;10.110;2022-11-24T11:44:41;3.29;88.63
65291;SHT30;51893;59.754;10.110;2022-11-24T11:47:16;3.24;88.60
65291;SHT30;51893;59.754;10.110;2022-11-24T11:49:51;3.23;88.66
65291;SHT30;51893;59.754;10.110;2022-11-24T12:00:23;3.19;88.58
65291;SHT30;51893;59.754;10.110;2022-11-24T12:03:12;3.20;88.69
65291;SHT30;51893;59.754;10.110;2022-11-24T12:08:30;3.14;88.81
65291;SHT30;51893;59.754;10.110;2022-11-24T12:21:16;3.24;88.65
65291;SHT30;51893;59.754;10.110;2022-11-24T12:35:38;3.25;88.58
65291;SHT30;51893;59.754;10.110;2022-11-24T12:44:20;3.16;88.54
65291;SHT30;51893;59.754;10.110;2022-11-24T12:50:08;3.17;88.60
65291;SHT30;51893;59.754;10.110;2022-11-24T12:52:49;3.16;88.60
65291;SHT30;51893;59.754;10.110;2022-11-24T12:55:30;3.15;88.58
65291;SHT30;51893;59.754;10.110;2022-11-24T13:00:54;3.13;88.56
65291;SHT30;51893;59.754;10.110;2022-11-24T13:06:27;3.16;88.57
65291;SHT30;51893;59.754;10.110;2022-11-24T13:09:26;3.13;88.50
65291;SHT30;51893;59.754;10.110;2022-11-24T13:12:12;3.12;88.53
65291;SHT30;51893;59.754;10.110;2022-11-24T13:14:42;3.13;88.59
65291;SHT30;51893;59.754;10.110;2022-11-24T13:17:47;3.13;88.56
65291;SHT30;51893;59.754;10.110;2022-11-24T13:20:32;3.17;88.58
65291;SHT30;51893;59.754;10.110;2022-11-24T13:23:18;3.19;88.62
65291;SHT30;51893;59.754;10.110;2022-11-24T13:26:22;3.20;88.61
65291;SHT30;51893;59.754;10.110;2022-11-24T13:29:00;3.23;88.58
65291;SHT30;51893;59.754;10.110;2022-11-24T13:34:53;3.21;88.54
65291;SHT30;51893;59.754;10.110;2022-11-24T13:58:44;3.25;88.88
65291;SHT30;51893;59.754;10.110;2022-11-24T14:01:20;3.27;89.00
65291;SHT30;51893;59.754;10.110;2022-11-24T14:07:02;3.26;89.03
65291;SHT30;51893;59.754;10.110;2022-11-24T14:09:42;3.24;89.00
65291;SHT30;51893;59.754;10.110;2022-11-24T14:12:25;3.22;89.06
65291;SHT30;51893;59.754;10.110;2022-11-24T14:17:54;3.19;89.16
65291;SHT30;51893;59.754;10.110;2022-11-24T14:20:26;3.19;89.18
65291;SHT30;51893;59.754;10.110;2022-11-24T14:22:58;3.17;89.18
65291;SHT30;51893;59.754;10.110;2022-11-24T14:25:28;3.17;89.21
65291;SHT30;51893;59.754;10.110;2022-11-24T14:27:59;3.19;89.20
65291;SHT30;51893;59.754;10.110;2022-11-24T14:30:27;3.21;89.29
65291;SHT30;51893;59.754;10.110;2022-11-24T14:32:59;3.19;89.28
65291;SHT30;51893;59.754;10.110;2022-11-24T14:35:31;3.18;89.31
65291;SHT30;51893;59.754;10.110;2022-11-24T14:38:04;3.17;89.30
65291;SHT30;51893;59.754;10.110;2022-11-24T14:40:51;3.19;89.41
65291;SHT30;51893;59.754;10.110;2022-11-24T14:43:31;3.24;89.44
65291;SHT30;51893;59.754;10.110;2022-11-24T14:46:06;3.29;89.39
65291;SHT30;51893;59.754;10.110;2022-11-24T14:48:48;3.32;89.33
65291;SHT30;51893;59.754;10.110;2022-11-24T14:51:21;3.34;89.37
65291;SHT30;51893;59.754;10.110;2022-11-24T14:53:54;3.37;89.32
65291;SHT30;51893;59.754;10.110;2022-11-24T14:56:30;3.38;89.35
65291;SHT30;51893;59.754;10.110;2022-11-24T14:59:21;3.41;89.33
65291;SHT30;51893;59.754;10.110;2022-11-24T15:01:52;3.45;89.30
65291;SHT30;51893;59.754;10.110;2022-11-24T15:04:22;3.52;89.29
65291;SHT30;51893;59.754;10.110;2022-11-24T15:07:26;3.54;89.22
65291;SHT30;51893;59.754;10.110;2022-11-24T15:09:59;3.57;89.15
65291;SHT30;51893;59.754;10.110;2022-11-24T15:12:40;3.54;89.11
65291;SHT30;51893;59.754;10.110;2022-11-24T15:15:17;3.52;89.20
65291;SHT30;51893;59.754;10.110;2022-11-24T15:17:50;3.54;89.28
65291;SHT30;51893;59.754;10.110;2022-11-24T15:20:32;3.54;89.28
65291;SHT30;51893;59.754;10.110;2022-11-24T15:25:52;3.59;89.23
65291;SHT30;51893;59.754;10.110;2022-11-24T15:28:30;3.61;89.24
65291;SHT30;51893;59.754;10.110;2022-11-24T15:31:08;3.59;89.15
65291;SHT30;51893;59.754;10.110;2022-11-24T15:33:39;3.60;89.03
65291;SHT30;51893;59.754;10.110;2022-11-24T15:36:09;3.59;88.98
65291;SHT30;51893;59.754;10.110;2022-11-24T15:38:41;3.59;89.03
65291;SHT30;51893;59.754;10.110;2022-11-24T15:41:19;3.64;89.07
65291;SHT30;51893;59.754;10.110;2022-11-24T15:43:52;3.69;88.86
65291;SHT30;51893;59.754;10.110;2022-11-24T15:46:28;3.71;88.73
65291;SHT30;51893;59.754;10.110;2022-11-24T15:49:05;3.74;88.62
65291;SHT30;51893;59.754;10.110;2022-11-24T15:51:42;3.74;88.50
65291;SHT30;51893;59.754;10.110;2022-11-24T15:54:15;3.74;88.48
65291;SHT30;51893;59.754;10.110;2022-11-24T15:56:49;3.76;88.38
65291;SHT30;51893;59.754;10.110;2022-11-24T15:59:18;3.78;88.31
65291;SHT30;51893;59.754;10.110;2022-11-24T16:01:49;3.80;88.34
65291;SHT30;51893;59.754;10.110;2022-11-24T16:04:17;3.81;88.40
65291;SHT30;51893;59.754;10.110;2022-11-24T16:06:46;3.83;88.36
65291;SHT30;51893;59.754;10.110;2022-11-24T16:09:15;3.78;88.40
65291;SHT30;51893;59.754;10.110;2022-11-24T16:11:43;3.76;88.41
65291;SHT30;51893;59.754;10.110;2022-11-24T16:14:12;3.74;88.47
65291;SHT30;51893;59.754;10.110;2022-11-24T16:16:43;3.73;88.50
65291;SHT30;51893;59.754;10.110;2022-11-24T16:19:11;3.75;88.59
65291;SHT30;51893;59.754;10.110;2022-11-24T16:21:41;3.80;88.55
65291;SHT30;51893;59.754;10.110;2022-11-24T16:24:10;3.82;88.40
65291;SHT30;51893;59.754;10.110;2022-11-24T16:26:40;3.77;88.38
65291;SHT30;51893;59.754;10.110;2022-11-24T16:29:09;3.76;88.50
65291;SHT30;51893;59.754;10.110;2022-11-24T16:31:40;3.77;88.55
65291;SHT30;51893;59.754;10.110;2022-11-24T16:34:12;3.81;88.50
65291;SHT30;51893;59.754;10.110;2022-11-24T16:36:43;3.81;88.44
65291;SHT30;51893;59.754;10.110;2022-11-24T16:39:14;3.80;88.40
65291;SHT30;51893;59.754;10.110;2022-11-24T16:41:46;3.83;88.50
65291;SHT30;51893;59.754;10.110;2022-11-24T16:44:15;3.85;88.50
65291;SHT30;51893;59.754;10.110;2022-11-24T16:46:45;3.84;88.45
65291;SHT30;51893;59.754;10.110;2022-11-24T16:49:13;3.83;88.39
65291;SHT30;51893;59.754;10.110;2022-11-24T16:51:42;3.86;88.42
65291;SHT30;51893;59.754;10.110;2022-11-24T16:54:14;3.87;88.49
65291;SHT30;51893;59.754;10.110;2022-11-24T16:56:43;3.89;88.56
65291;SHT30;51893;59.754;10.110;2022-11-24T16:59:11;3.93;88.57
65291;SHT30;51893;59.754;10.110;2022-11-24T17:01:42;3.90;88.52
65291;SHT30;51893;59.754;10.110;2022-11-24T17:04:17;3.85;88.64
65291;SHT30;51893;59.754;10.110;2022-11-24T17:06:50;3.84;88.75
65291;SHT30;51893;59.754;10.110;2022-11-24T17:09:19;3.83;88.85
65291;SHT30;51893;59.754;10.110;2022-11-24T17:12:03;3.87;88.94
65291;SHT30;51893;59.754;10.110;2022-11-24T17:14:32;3.92;88.90
65291;SHT30;51893;59.754;10.110;2022-11-24T17:17:00;3.94;88.87
65291;SHT30;51893;59.754;10.110;2022-11-24T17:19:29;3.95;88.80
65291;SHT30;51893;59.754;10.110;2022-11-24T17:21:59;3.92;88.75
65291;SHT30;51893;59.754;10.110;2022-11-24T17:24:28;3.91;88.77
65291;SHT30;51893;59.754;10.110;2022-11-24T17:26:57;3.90;88.71
65291;SHT30;51893;59.754;10.110;2022-11-24T17:29:28;3.87;88.70
65291;SHT30;51893;59.754;10.110;2022-11-24T17:31:56;3.88;88.76
65291;SHT30;51893;59.754;10.110;2022-11-24T17:34:27;3.89;88.75
65291;SHT30;51893;59.754;10.110;2022-11-24T17:37:00;3.85;88.70
65291;SHT30;51893;59.754;10.110;2022-11-24T17:39:29;3.82;88.70
65291;SHT30;51893;59.754;10.110;2022-11-24T17:41:57;3.80;88.69
65291;SHT30;51893;59.754;10.110;2022-11-24T17:44:24;3.78;88.80
65291;SHT30;51893;59.754;10.110;2022-11-24T17:46:53;3.77;88.90
65291;SHT30;51893;59.754;10.110;2022-11-24T17:49:23;3.78;88.90
65291;SHT30;51893;59.754;10.110;2022-11-24T17:51:52;3.78;89.00
65291;SHT30;51893;59.754;10.110;2022-11-24T17:54:21;3.79;89.08
65291;SHT30;51893;59.754;10.110;2022-11-24T17:57:09;3.77;89.10
65291;SHT30;51893;59.754;10.110;2022-11-24T17:59:39;3.76;89.19
65291;SHT30;51893;59.754;10.110;2022-11-24T18:02:08;3.74;89.17
65291;SHT30;51893;59.754;10.110;2022-11-24T18:04:36;3.75;89.24
65291;SHT30;51893;59.754;10.110;2022-11-24T18:07:04;3.74;89.21